Time;durP1;ratioP1;P1;durP2;ratioP2;P2;SDS_P1;SDS_P2;PMS_P1;PMS_P2;Temp;Humidity;BMP_temperature;BMP_pressure;BME280_temperature;BME280_humidity;BME280_pressure;Samples;Min_cycle;Max_cycle;Signal;HPM_P1;HPM_P2
2022/11/14 00:01:12;;;;;;;;;;;;;;;6.85;90.72;101658.56;5347375;32;34285;-65
2022/11/14 00:04:14;;;;;;;;;;;;;;;7.81;89.70;101655.41;5361158;32;34412;-64
2022/11/14 00:07:16;;;;;;;;;;;;;;;8.59;82.84;101646.87;5342695;32;34604;-68
2022/11/14 00:10:18;;;;;;;;;;;;;;;7.87;86.16;101649.25;5353036;32;35226;-64
2022/11/14 00:13:20;;;;;;;;;;;;;;;7.79;85.25;101631.00;5352700;32;34642;-69
2022/11/14 00:16:22;;;;;;;;;;;;;;;7.56;87.92;101648.62;5343226;32;35031;-70
2022/11/14 00:19:24;;;;;;;;;;;;;;;8.09;84.73;101644.69;5356700;32;34000;-71
2022/11/14 00:22:26;;;;;;;;;;;;;;;6.90;88.82;101641.13;5339469;32;33144;-72
2022/11/14 00:25:27;;;;;;;;;;;;;;;8.12;87.06;101637.69;5350998;32;35249;-64
2022/11/14 00:28:29;;;;;;;;;;;;;;;8.68;81.10;101631.03;5350647;32;34917;-71
2022/11/14 00:31:31;;;;;;;;;;;;;;;8.11;82.11;101641.22;5358201;32;34826;-69
2022/11/14 00:34:33;;;;;;;;;;;;;;;7.45;85.88;101646.06;5348606;32;34344;-63
2022/11/14 00:37:35;;;;;;;;;;;;;;;7.12;88.82;101639.25;5360753;32;34794;-64
2022/11/14 00:40:37;;;;;;;;;;;;;;;7.31;88.76;101634.81;5350615;32;44789;-70
2022/11/14 00:43:39;;;;;;;;;;;;;;;7.46;85.44;101639.94;5338857;32;35495;-71
2022/11/14 00:46:41;;;;;;;;;;;;;;;8.53;80.34;101632.97;5330313;32;35107;-70
2022/11/14 00:49:42;;;;;;;;;;;;;;;7.53;85.81;101638.16;5336613;32;35298;-64
2022/11/14 00:52:44;;;;;;;;;;;;;;;7.39;86.06;101640.84;5356147;32;34899;-64
2022/11/14 00:55:46;;;;;;;;;;;;;;;7.58;85.56;101641.59;5329481;32;35542;-69
2022/11/14 00:58:48;;;;;;;;;;;;;;;8.03;86.49;101642.12;5350823;32;35121;-70
2022/11/14 01:01:50;;;;;;;;;;;;;;;7.42;82.86;101645.22;5332956;32;35014;-66
2022/11/14 01:04:58;;;;;;;;;;;;;;;7.01;85.99;101644.53;5339185;32;34888;-70
2022/11/14 01:08:00;;;;;;;;;;;;;;;7.67;84.41;101641.56;5332655;32;34868;-64
2022/11/14 01:11:07;;;;;;;;;;;;;;;8.33;80.87;101638.38;5344214;32;34825;-64
2022/11/14 01:14:09;;;;;;;;;;;;;;;7.14;86.92;101645.34;5344075;32;44707;-65
2022/11/14 01:17:10;;;;;;;;;;;;;;;7.44;84.91;101633.84;5337580;32;35746;-71
2022/11/14 01:20:12;;;;;;;;;;;;;;;6.94;87.22;101637.59;5346256;32;34994;-71
2022/11/14 01:23:15;;;;;;;;;;;;;;;7.09;88.10;101628.84;5346735;32;34809;-71
2022/11/14 01:26:17;;;;;;;;;;;;;;;6.86;89.45;101633.28;5343574;32;35057;-70
2022/11/14 01:29:18;;;;;;;;;;;;;;;7.62;83.30;101632.00;5358471;32;34855;-66
2022/11/14 01:32:20;;;;;;;;;;;;;;;7.29;86.53;101621.75;5348684;32;35874;-64
2022/11/14 01:35:22;;;;;;;;;;;;;;;7.83;82.18;101611.75;5354770;32;34692;-71
2022/11/14 01:38:24;;;;;;;;;;;;;;;6.95;86.53;101614.94;5347141;32;35250;-70
2022/11/14 01:41:26;;;;;;;;;;;;;;;7.60;85.96;101619.81;5350712;32;35096;-66
2022/11/14 01:44:39;;;;;;;;;;;;;;;7.38;84.36;101620.81;5356801;32;35748;-65
2022/11/14 01:47:41;;;;;;;;;;;;;;;7.04;87.04;101622.75;5328234;32;44618;-71
2022/11/14 01:50:43;;;;;;;;;;;;;;;7.48;82.88;101619.87;5359176;32;34515;-71
2022/11/14 01:53:45;;;;;;;;;;;;;;;8.40;79.77;101619.13;5349713;32;35024;-64
2022/11/14 01:56:49;;;;;;;;;;;;;;;7.15;83.76;101617.44;5343959;32;34586;-64
2022/11/14 01:59:52;;;;;;;;;;;;;;;7.07;85.73;101609.66;5342139;32;35069;-69
2022/11/14 02:02:53;;;;;;;;;;;;;;;7.58;83.37;101600.63;5331738;32;34998;-64
2022/11/14 02:05:55;;;;;;;;;;;;;;;6.35;87.36;101604.72;5343657;32;34878;-64
2022/11/14 02:08:58;;;;;;;;;;;;;;;6.88;85.61;101602.78;5349617;32;35570;-65
2022/11/14 02:12:01;;;;;;;;;;;;;;;7.12;83.94;101596.56;5344403;32;35182;-63
2022/11/14 02:15:03;;;;;;;;;;;;;;;6.68;86.10;101603.72;5336270;32;35456;-64
2022/11/14 02:18:05;;;;;;;;;;;;;;;6.39;89.49;101603.84;5365887;32;35248;-65
2022/11/14 02:21:07;;;;;;;;;;;;;;;6.39;88.85;101600.38;5347427;32;46753;-71
2022/11/14 02:24:09;;;;;;;;;;;;;;;7.20;84.14;101600.88;5335638;32;35616;-72
2022/11/14 02:27:12;;;;;;;;;;;;;;;7.31;82.46;101600.81;5356900;32;34876;-64
2022/11/14 02:30:19;;;;;;;;;;;;;;;6.78;83.78;101602.84;5326988;32;34433;-63
2022/11/14 02:33:21;;;;;;;;;;;;;;;6.02;88.18;101603.03;5349138;32;35284;-65
2022/11/14 02:36:22;;;;;;;;;;;;;;;6.27;89.28;101601.25;5340807;32;34721;-69
2022/11/14 02:39:24;;;;;;;;;;;;;;;5.93;88.24;101610.88;5356624;32;34862;-65
2022/11/14 02:42:26;;;;;;;;;;;;;;;6.11;88.95;101599.53;5335638;32;34768;-71
2022/11/14 02:45:28;;;;;;;;;;;;;;;6.61;87.18;101601.16;5334769;32;34454;-65
2022/11/14 02:48:30;;;;;;;;;;;;;;;6.07;89.12;101603.03;5354429;32;35097;-71
2022/11/14 02:51:32;;;;;;;;;;;;;;;6.17;88.21;101599.53;5343044;32;36218;-63
2022/11/14 02:54:34;;;;;;;;;;;;;;;6.30;88.63;101593.41;5361898;32;35051;-71
2022/11/14 02:57:36;;;;;;;;;;;;;;;6.54;87.30;101594.22;5348977;32;45037;-70
2022/11/14 03:00:38;;;;;;;;;;;;;;;6.41;87.03;101594.25;5358151;32;34234;-64
2022/11/14 03:04:00;;;;;;;;;;;;;;;6.13;89.40;101593.44;5346222;32;35548;-65
2022/11/14 03:07:02;;;;;;;;;;;;;;;6.67;86.99;101598.53;5344152;32;35283;-69
2022/11/14 03:10:04;;;;;;;;;;;;;;;7.41;80.13;101586.81;5364329;32;34971;-63
2022/11/14 03:13:05;;;;;;;;;;;;;;;6.15;85.34;101591.69;5332089;32;35219;-70
2022/11/14 03:16:08;;;;;;;;;;;;;;;5.91;88.75;101582.16;5342727;32;44883;-63
2022/11/14 03:19:10;;;;;;;;;;;;;;;5.95;88.88;101586.50;5344083;32;34890;-64
2022/11/14 03:22:12;;;;;;;;;;;;;;;5.78;88.73;101596.03;5345447;32;35012;-70
2022/11/14 03:25:14;;;;;;;;;;;;;;;6.02;87.37;101592.59;5358802;32;35076;-65
2022/11/14 03:28:16;;;;;;;;;;;;;;;6.01;86.22;101584.78;5334271;32;34557;-65
2022/11/14 03:31:20;;;;;;;;;;;;;;;5.42;89.05;101584.75;5359995;32;35347;-70
2022/11/14 03:34:22;;;;;;;;;;;;;;;6.09;87.38;101583.88;5348069;32;34712;-71
2022/11/14 03:37:24;;;;;;;;;;;;;;;6.39;86.00;101590.78;5359030;32;34341;-70
2022/11/14 03:40:26;;;;;;;;;;;;;;;6.56;86.35;101589.84;5347423;32;35014;-69
2022/11/14 03:43:31;;;;;;;;;;;;;;;5.62;88.72;101582.16;5334702;32;34960;-64
2022/11/14 03:46:33;;;;;;;;;;;;;;;5.79;88.33;101582.13;5325062;32;35084;-63
2022/11/14 03:49:35;;;;;;;;;;;;;;;6.06;88.26;101581.28;5325482;32;34821;-64
2022/11/14 03:52:37;;;;;;;;;;;;;;;6.34;87.46;101587.31;5355322;32;44538;-70
2022/11/14 03:55:39;;;;;;;;;;;;;;;6.05;88.29;101583.88;5324470;32;35516;-63
2022/11/14 03:58:41;;;;;;;;;;;;;;;6.41;87.96;101581.19;5360078;32;34727;-64
2022/11/14 04:01:42;;;;;;;;;;;;;;;6.83;82.24;101578.41;5346559;32;35018;-71
2022/11/14 04:04:44;;;;;;;;;;;;;;;7.02;80.40;101573.09;5341286;32;35615;-64
2022/11/14 04:07:46;;;;;;;;;;;;;;;5.51;86.95;101565.63;5343784;32;34502;-69
2022/11/14 04:10:48;;;;;;;;;;;;;;;5.41;89.65;101575.19;5343341;32;34786;-70
2022/11/14 04:13:50;;;;;;;;;;;;;;;5.58;89.24;101583.00;5363292;32;34555;-69
2022/11/14 04:16:51;;;;;;;;;;;;;;;6.08;87.28;101568.22;5344712;32;35399;-63
2022/11/14 04:19:53;;;;;;;;;;;;;;;5.75;86.64;101576.94;5357722;32;35196;-71
2022/11/14 04:22:55;;;;;;;;;;;;;;;6.01;86.46;101564.75;5334804;32;35743;-71
2022/11/14 04:25:57;;;;;;;;;;;;;;;5.96;86.76;101554.31;5345020;32;34997;-70
2022/11/14 04:28:59;;;;;;;;;;;;;;;6.38;82.44;101557.72;5359964;32;34251;-70
2022/11/14 04:32:01;;;;;;;;;;;;;;;6.64;81.67;101552.37;5348444;32;36290;-69
2022/11/14 04:35:03;;;;;;;;;;;;;;;5.29;85.43;101564.75;5351055;32;35008;-70
2022/11/14 04:38:04;;;;;;;;;;;;;;;5.78;85.68;101556.91;5340471;32;34496;-71
2022/11/14 04:41:06;;;;;;;;;;;;;;;5.62;85.99;101563.88;5356793;32;45625;-64
2022/11/14 04:44:08;;;;;;;;;;;;;;;5.52;86.79;101551.69;5343338;32;34895;-65
2022/11/14 04:47:10;;;;;;;;;;;;;;;5.71;87.02;101549.97;5324635;32;35550;-63
2022/11/14 04:50:12;;;;;;;;;;;;;;;5.46;88.16;101549.09;5344322;32;35094;-64
2022/11/14 04:53:13;;;;;;;;;;;;;;;5.40;89.29;101539.53;5342943;32;35510;-71
2022/11/14 04:56:16;;;;;;;;;;;;;;;6.18;85.53;101543.81;5359075;32;35096;-71
2022/11/14 04:59:17;;;;;;;;;;;;;;;5.61;86.61;101545.63;5346165;32;34841;-63
2022/11/14 05:02:22;;;;;;;;;;;;;;;6.16;84.65;101532.53;5363809;32;35023;-70
2022/11/14 05:05:23;;;;;;;;;;;;;;;5.87;85.99;101533.44;5342379;32;38118;-71
2022/11/14 05:08:25;;;;;;;;;;;;;;;6.07;84.73;101535.16;5339013;32;35513;-70
2022/11/14 05:11:27;;;;;;;;;;;;;;;5.82;84.70;101531.69;5364908;32;34489;-63
2022/11/14 05:14:30;;;;;;;;;;;;;;;5.94;84.62;101542.16;5343209;32;34922;-71
2022/11/14 05:17:32;;;;;;;;;;;;;;;5.43;87.31;101538.69;5363512;32;35561;-64
2022/11/14 05:20:34;;;;;;;;;;;;;;;5.59;87.47;101519.53;5339925;32;35295;-70
2022/11/14 05:23:36;;;;;;;;;;;;;;;6.67;81.13;101533.22;5359375;32;34830;-65
2022/11/14 05:26:38;;;;;;;;;;;;;;;6.61;83.43;101528.00;5347577;32;45540;-70
2022/11/14 05:29:40;;;;;;;;;;;;;;;5.66;86.10;101523.88;5345059;32;34892;-70
2022/11/14 05:32:42;;;;;;;;;;;;;;;6.03;86.52;101533.44;5362107;32;35301;-64
2022/11/14 05:35:44;;;;;;;;;;;;;;;6.15;84.56;101533.41;5331973;32;34941;-64
2022/11/14 05:38:45;;;;;;;;;;;;;;;6.04;86.74;101529.94;5334241;32;34496;-69
2022/11/14 05:41:47;;;;;;;;;;;;;;;5.79;86.84;101535.16;5348750;32;35107;-64
2022/11/14 05:44:49;;;;;;;;;;;;;;;6.17;85.72;101523.81;5359258;32;34578;-65
2022/11/14 05:47:52;;;;;;;;;;;;;;;5.89;86.62;101531.69;5330053;32;34929;-70
2022/11/14 05:50:58;;;;;;;;;;;;;;;6.09;85.78;101533.41;5330796;32;35001;-69
2022/11/14 05:54:00;;;;;;;;;;;;;;;6.55;83.81;101526.28;5350914;32;35371;-70
2022/11/14 05:57:03;;;;;;;;;;;;;;;6.28;84.97;101536.84;5337809;32;35574;-63
2022/11/14 06:00:05;;;;;;;;;;;;;;;6.65;80.87;101525.37;5342222;32;34461;-63
2022/11/14 06:03:07;;;;;;;;;;;;;;;6.49;82.88;101536.75;5336324;32;43603;-70
2022/11/14 06:06:10;;;;;;;;;;;;;;;6.27;83.14;101528.16;5343187;32;35060;-70
2022/11/14 06:09:12;;;;;;;;;;;;;;;6.12;84.16;101528.22;5353297;32;35355;-65
2022/11/14 06:12:14;;;;;;;;;;;;;;;7.09;80.12;101528.63;5345349;32;35332;-71
2022/11/14 06:15:15;;;;;;;;;;;;;;;6.76;82.18;101535.75;5359071;32;35630;-70
2022/11/14 06:18:17;;;;;;;;;;;;;;;6.16;82.32;101540.34;5346031;32;35349;-71
2022/11/14 06:21:20;;;;;;;;;;;;;;;6.15;83.52;101549.06;5362661;32;34508;-69
2022/11/14 06:24:22;;;;;;;;;;;;;;;6.28;82.24;101553.38;5335691;32;36237;-64
2022/11/14 06:27:23;;;;;;;;;;;;;;;6.23;83.99;101552.50;5354450;32;34493;-63
2022/11/14 06:30:25;;;;;;;;;;;;;;;6.61;82.81;101554.12;5339149;32;35018;-66
2022/11/14 06:33:28;;;;;;;;;;;;;;;7.20;78.19;101545.09;5342041;32;35619;-72
2022/11/14 06:36:30;;;;;;;;;;;;;;;6.17;80.55;101560.38;5357951;32;34758;-65
2022/11/14 06:39:32;;;;;;;;;;;;;;;6.30;80.31;101563.81;5345676;32;34994;-72
2022/11/14 06:42:34;;;;;;;;;;;;;;;6.71;79.31;101561.94;5338313;32;34639;-70
2022/11/14 06:45:36;;;;;;;;;;;;;;;6.70;80.10;101568.03;5310313;32;36703;-70
2022/11/14 06:48:38;;;;;;;;;;;;;;;6.55;80.37;101562.84;5331672;32;44530;-75
2022/11/14 06:51:39;;;;;;;;;;;;;;;6.47;82.22;101557.66;5346643;32;34430;-67
2022/11/14 06:54:41;;;;;;;;;;;;;;;7.07;78.67;101550.41;5339011;32;34455;-72
2022/11/14 06:57:43;;;;;;;;;;;;;;;6.58;79.33;101564.59;5338598;32;35759;-65
2022/11/14 07:00:45;;;;;;;;;;;;;;;6.09;83.19;101552.56;5330675;32;34784;-64
2022/11/14 07:03:47;;;;;;;;;;;;;;;6.62;82.23;101550.62;5351495;32;34151;-72
2022/11/14 07:06:49;;;;;;;;;;;;;;;6.71;81.43;101550.62;5333063;32;34174;-68
2022/11/14 07:09:53;;;;;;;;;;;;;;;7.00;80.62;101558.28;5337056;32;34251;-70
2022/11/14 07:12:55;;;;;;;;;;;;;;;6.42;83.04;101559.41;5344166;32;34619;-67
2022/11/14 07:15:56;;;;;;;;;;;;;;;7.90;76.51;101548.87;5329769;32;34496;-69
2022/11/14 07:18:58;;;;;;;;;;;;;;;6.62;79.78;101561.94;5353508;32;35546;-72
2022/11/14 07:22:00;;;;;;;;;;;;;;;6.49;81.74;101561.12;5334481;32;35442;-75
2022/11/14 07:25:03;;;;;;;;;;;;;;;6.61;81.18;101567.19;5352950;32;36021;-64
2022/11/14 07:28:05;;;;;;;;;;;;;;;6.66;81.01;101563.69;5348569;32;35730;-62
2022/11/14 07:31:08;;;;;;;;;;;;;;;7.12;80.34;101558.22;5342507;32;44512;-76
2022/11/14 07:34:10;;;;;;;;;;;;;;;7.74;77.86;101546.41;5351232;32;35574;-62
2022/11/14 07:37:14;;;;;;;;;;;;;;;7.00;78.33;101556.53;5347341;32;35371;-61
2022/11/14 07:40:17;;;;;;;;;;;;;;;7.10;80.83;101546.91;5355817;32;34132;-60
2022/11/14 07:43:19;;;;;;;;;;;;;;;6.64;81.78;101549.78;5342801;32;35812;-62
2022/11/14 07:46:21;;;;;;;;;;;;;;;6.87;81.37;101556.63;5341805;32;35494;-62
2022/11/14 07:49:23;;;;;;;;;;;;;;;8.38;75.92;101548.41;5338529;32;34123;-64
2022/11/14 07:52:25;;;;;;;;;;;;;;;7.77;77.80;101549.00;5349322;32;34263;-77
2022/11/14 07:55:27;;;;;;;;;;;;;;;7.01;80.51;101560.88;5335948;32;35653;-70
2022/11/14 07:58:28;;;;;;;;;;;;;;;7.38;80.36;101554.56;5349410;32;34226;-71
2022/11/14 08:01:31;;;;;;;;;;;;;;;8.47;74.21;101551.81;5344371;32;37018;-73
2022/11/14 08:04:33;;;;;;;;;;;;;;;8.72;73.71;101547.12;5336408;32;35943;-75
2022/11/14 08:07:34;;;;;;;;;;;;;;;8.32;75.49;101553.69;5344862;32;34304;-73
2022/11/14 08:10:36;;;;;;;;;;;;;;;8.77;74.56;101546.19;5328519;32;44777;-67
2022/11/14 08:13:39;;;;;;;;;;;;;;;8.30;74.69;101542.34;5350167;32;33940;-76
2022/11/14 08:16:40;;;;;;;;;;;;;;;8.34;76.74;101545.81;5350762;32;35670;-71
2022/11/14 08:19:42;;;;;;;;;;;;;;;8.10;77.88;101541.69;5337622;32;34311;-70
2022/11/14 08:22:44;;;;;;;;;;;;;;;8.66;74.43;101532.34;5357805;32;34419;-73
2022/11/14 08:25:46;;;;;;;;;;;;;;;9.86;69.33;101527.00;5332060;32;34215;-70
2022/11/14 08:28:51;;;;;;;;;;;;;;;9.65;70.78;101519.47;5340468;32;33985;-69
2022/11/14 08:31:53;;;;;;;;;;;;;;;8.57;74.28;101522.00;5352332;32;36658;-77
2022/11/14 08:35:00;;;;;;;;;;;;;;;8.14;76.20;101525.06;5344061;32;34389;-73
2022/11/14 08:38:05;;;;;;;;;;;;;;;8.80;74.97;101511.19;5357768;32;36076;-73
2022/11/14 08:41:07;;;;;;;;;;;;;;;9.19;73.19;101512.34;5348476;32;44326;-72
2022/11/14 08:44:09;;;;;;;;;;;;;;;9.55;70.38;101510.91;5357489;32;34239;-75
2022/11/14 08:47:11;;;;;;;;;;;;;;;9.19;72.69;101513.22;5324691;32;36175;-68
2022/11/14 08:50:13;;;;;;;;;;;;;;;9.35;71.60;101508.63;5354559;32;34816;-68
2022/11/14 08:53:15;;;;;;;;;;;;;;;8.85;73.94;101501.50;5333630;32;37008;-70
2022/11/14 08:56:17;;;;;;;;;;;;;;;8.83;76.07;101505.91;5332053;32;34921;-74
2022/11/14 08:59:18;;;;;;;;;;;;;;;8.63;76.64;101517.53;5357003;32;34302;-69
2022/11/14 09:02:20;;;;;;;;;;;;;;;9.31;75.11;101511.31;5345750;32;35760;-68
2022/11/14 09:05:22;;;;;;;;;;;;;;;9.54;74.84;101509.19;5348244;32;34276;-73
2022/11/14 09:08:24;;;;;;;;;;;;;;;10.17;71.54;101502.75;5349128;32;34376;-72
2022/11/14 09:11:26;;;;;;;;;;;;;;;9.25;74.84;101501.78;5356462;32;34705;-72
2022/11/14 09:14:29;;;;;;;;;;;;;;;9.57;73.75;101503.84;5346242;32;35538;-67
2022/11/14 09:17:31;;;;;;;;;;;;;;;9.60;75.24;101502.97;5335176;32;35641;-69
2022/11/14 09:20:33;;;;;;;;;;;;;;;9.99;73.32;101502.22;5338600;32;34542;-71
2022/11/14 09:23:41;;;;;;;;;;;;;;;11.20;68.03;101491.75;5332507;32;43425;-65
2022/11/14 09:26:43;;;;;;;;;;;;;;;10.20;72.31;101506.19;5334687;32;34364;-63
2022/11/14 09:29:45;;;;;;;;;;;;;;;11.55;67.08;101496.16;5329152;32;36034;-62
2022/11/14 09:32:47;;;;;;;;;;;;;;;11.19;68.35;101495.28;5357972;32;34534;-62
2022/11/14 09:35:54;;;;;;;;;;;;;;;11.24;66.55;101482.03;5339789;32;34267;-62
2022/11/14 09:38:56;;;;;;;;;;;;;;;9.85;72.67;101492.84;5348620;32;35145;-69
2022/11/14 09:42:04;;;;;;;;;;;;;;;10.16;71.05;101480.00;5358727;32;35478;-67
2022/11/14 09:45:10;;;;;;;;;;;;;;;9.94;73.63;101490.09;5343076;32;34845;-72
2022/11/14 09:48:15;;;;;;;;;;;;;;;11.33;68.64;101476.53;5343927;32;44573;-68
2022/11/14 09:51:19;;;;;;;;;;;;;;;10.53;69.72;101480.16;5346296;32;35585;-67
2022/11/14 09:54:22;;;;;;;;;;;;;;;9.98;73.21;101474.25;5347241;32;34389;-66
2022/11/14 09:57:23;;;;;;;;;;;;;;;11.51;67.69;101465.53;5345691;32;35490;-66
2022/11/14 10:00:26;;;;;;;;;;;;;;;11.60;66.73;101457.41;5331477;32;35525;-68
2022/11/14 10:03:31;;;;;;;;;;;;;;;11.66;66.85;101465.16;5358304;32;34347;-76
2022/11/14 10:06:49;;;;;;;;;;;;;;;11.36;69.00;101460.69;5344699;32;34499;-75
2022/11/14 10:10:06;;;;;;;;;;;;;;;12.82;63.37;101449.53;5356904;32;34521;-67
2022/11/14 10:13:11;;;;;;;;;;;;;;;12.95;62.04;101446.47;5358241;32;44368;-76
2022/11/14 10:16:31;;;;;;;;;;;;;;;12.76;62.35;101434.78;5350123;32;35557;-73
2022/11/14 10:19:49;;;;;;;;;;;;;;;13.69;60.64;101431.66;5356983;32;34792;-75
2022/11/14 10:22:56;;;;;;;;;;;;;;;13.27;61.15;101429.59;5337717;32;34419;-75
2022/11/14 10:26:32;;;;;;;;;;;;;;;13.82;58.32;101419.75;5328574;32;34194;-78
2022/11/14 10:29:33;;;;;;;;;;;;;;;12.60;63.26;101423.81;5343312;32;34390;-73
2022/11/14 10:32:38;;;;;;;;;;;;;;;13.86;59.85;101409.94;5348599;32;34638;-68
2022/11/14 10:36:06;;;;;;;;;;;;;;;13.35;61.11;101410.84;5358765;32;44285;-72
2022/11/14 10:39:10;;;;;;;;;;;;;;;13.62;59.78;101408.16;5342603;32;44818;-69
2022/11/14 10:42:24;;;;;;;;;;;;;;;13.51;61.60;101396.19;5328227;32;34277;-71
2022/11/14 10:45:33;;;;;;;;;;;;;;;15.35;55.13;101397.00;5339171;32;34232;-79
2022/11/14 10:48:37;;;;;;;;;;;;;;;14.54;56.75;101390.59;5325515;32;34448;-73
2022/11/14 10:51:43;;;;;;;;;;;;;;;14.04;57.33;101396.03;5354538;32;44709;-74
2022/11/14 10:54:47;;;;;;;;;;;;;;;14.60;56.39;101384.22;5331912;32;36011;-75
2022/11/14 10:57:49;;;;;;;;;;;;;;;14.05;58.25;101379.25;5351558;32;35050;-75
2022/11/14 11:00:54;;;;;;;;;;;;;;;14.17;58.59;101372.66;5354140;32;36351;-73
2022/11/14 11:03:56;;;;;;;;;;;;;;;14.04;58.86;101363.47;5330356;32;35732;-75
2022/11/14 11:14:01;;;;;;;;;;;;;;;13.89;60.44;101362.25;5345255;32;36706;-71
2022/11/14 11:17:19;;;;;;;;;;;;;;;13.53;60.69;101360.03;5347411;32;34431;-69
2022/11/14 11:20:27;;;;;;;;;;;;;;;13.42;61.19;101356.91;5332909;32;34363;-69
2022/11/14 11:23:30;;;;;;;;;;;;;;;14.18;59.76;101352.34;5354200;32;34263;-69
2022/11/14 11:26:32;;;;;;;;;;;;;;;13.96;59.33;101341.72;5329064;32;34171;-72
2022/11/14 11:29:33;;;;;;;;;;;;;;;14.35;59.21;101341.97;5343557;32;34336;-73
2022/11/14 11:32:35;;;;;;;;;;;;;;;13.88;60.24;101334.09;5352143;32;34803;-75
2022/11/14 11:35:37;;;;;;;;;;;;;;;15.15;57.01;101327.19;5328095;32;45127;-73
2022/11/14 11:38:39;;;;;;;;;;;;;;;14.82;56.75;101331.28;5340107;32;36718;-74
2022/11/14 11:41:41;;;;;;;;;;;;;;;15.02;56.74;101326.00;5327570;32;34365;-79
2022/11/14 11:45:05;;;;;;;;;;;;;;;14.84;57.16;101327.66;5338784;32;34641;-76
2022/11/14 11:48:09;;;;;;;;;;;;;;;15.64;54.83;101317.09;5315826;32;45283;-76
2022/11/14 11:51:12;;;;;;;;;;;;;;;16.28;53.45;101304.41;5328927;32;35374;-77
2022/11/14 11:54:15;;;;;;;;;;;;;;;16.00;54.07;101311.03;5341115;32;34307;-70
2022/11/14 11:57:18;;;;;;;;;;;;;;;16.60;51.93;101306.34;5345441;32;35411;-70
2022/11/14 12:00:22;;;;;;;;;;;;;;;17.94;47.61;101298.50;5353983;32;34361;-72
2022/11/14 12:03:24;;;;;;;;;;;;;;;16.74;50.15;101292.44;5345094;32;35944;-69
2022/11/14 12:06:27;;;;;;;;;;;;;;;16.91;49.90;101288.94;5345147;32;34868;-78
2022/11/14 12:09:32;;;;;;;;;;;;;;;16.32;51.37;101284.78;5346869;32;34058;-69
2022/11/14 12:12:57;;;;;;;;;;;;;;;16.40;51.72;101278.16;5335283;32;35789;-67
2022/11/14 12:16:02;;;;;;;;;;;;;;;15.16;54.51;101283.91;5355261;32;35303;-69
2022/11/14 12:19:18;;;;;;;;;;;;;;;16.17;51.74;101266.03;5345609;32;44520;-69
2022/11/14 12:22:26;;;;;;;;;;;;;;;15.43;53.55;101267.72;5356427;32;34147;-69
2022/11/14 12:25:43;;;;;;;;;;;;;;;16.05;51.80;101261.31;5346525;32;35339;-72
2022/11/14 12:28:58;;;;;;;;;;;;;;;16.13;49.88;101259.16;5329652;32;36923;-73
2022/11/14 12:32:03;;;;;;;;;;;;;;;15.86;52.00;101257.81;5355579;32;34497;-73
2022/11/14 12:35:06;;;;;;;;;;;;;;;15.54;52.27;101249.53;5324696;32;34606;-79
2022/11/14 12:38:12;;;;;;;;;;;;;;;16.79;49.48;101237.31;5336507;32;44767;-77
2022/11/14 12:41:22;;;;;;;;;;;;;;;16.19;50.47;101242.94;5347626;32;34331;-71
2022/11/14 12:44:27;;;;;;;;;;;;;;;16.61;50.12;101232.91;5341520;32;34278;-72
2022/11/14 12:47:29;;;;;;;;;;;;;;;16.92;50.03;101230.41;5334671;32;34260;-70
2022/11/14 12:50:40;;;;;;;;;;;;;;;16.91;48.73;101231.38;5347866;32;44608;-83
2022/11/14 12:53:43;;;;;;;;;;;;;;;16.82;47.85;101231.00;5331997;32;34608;-70
2022/11/14 12:56:47;;;;;;;;;;;;;;;16.22;49.08;101226.00;5334082;32;35481;-71
2022/11/14 12:59:56;;;;;;;;;;;;;;;17.28;46.17;101221.47;5332664;32;34175;-69
2022/11/14 13:03:10;;;;;;;;;;;;;;;17.95;45.21;101220.41;5340313;32;35983;-77
2022/11/14 13:06:21;;;;;;;;;;;;;;;18.66;42.90;101219.84;5345078;32;44317;-74
2022/11/14 13:09:26;;;;;;;;;;;;;;;18.43;42.34;101215.88;5341421;32;34268;-74
2022/11/14 13:22:41;;;;;;;;;;;;;;;18.72;41.12;101210.66;5338262;32;45951;-71
2022/11/14 13:25:43;;;;;;;;;;;;;;;18.84;40.57;101200.13;5356460;32;35534;-71
2022/11/14 13:28:49;;;;;;;;;;;;;;;19.52;38.98;101198.63;5342257;32;34502;-74
2022/11/14 13:31:51;;;;;;;;;;;;;;;19.02;39.74;101192.81;5332268;32;34251;-71
2022/11/14 13:34:55;;;;;;;;;;;;;;;18.62;40.70;101199.69;5349423;32;36097;-76
2022/11/14 13:38:16;;;;;;;;;;;;;;;17.81;42.86;101207.03;5329873;32;34240;-67
2022/11/14 13:41:36;;;;;;;;;;;;;;;17.35;44.50;101203.37;5356485;32;34230;-68
2022/11/14 13:45:07;;;;;;;;;;;;;;;17.04;44.66;101195.25;5343683;32;34478;-68
2022/11/14 13:48:28;;;;;;;;;;;;;;;17.13;44.30;101190.38;5326412;32;46532;-69
2022/11/14 13:51:30;;;;;;;;;;;;;;;17.84;43.46;101186.47;5340413;32;35325;-72
2022/11/14 13:54:48;;;;;;;;;;;;;;;18.39;41.91;101182.41;5335973;32;34636;-75
2022/11/14 13:57:53;;;;;;;;;;;;;;;17.74;43.35;101179.94;5340922;32;35460;-71
2022/11/14 14:01:07;;;;;;;;;;;;;;;17.19;44.63;101177.62;5347831;32;36206;-71
2022/11/14 14:04:10;;;;;;;;;;;;;;;17.18;44.88;101175.06;5331546;32;44685;-74
2022/11/14 14:07:15;;;;;;;;;;;;;;;16.02;47.86;101176.59;5343990;32;33648;-72
2022/11/14 14:10:17;;;;;;;;;;;;;;;16.51;46.62;101177.66;5338156;32;34406;-72
2022/11/14 14:13:51;;;;;;;;;;;;;;;16.05;47.35;101170.31;5349970;32;35607;-74
2022/11/14 14:17:06;;;;;;;;;;;;;;;16.46;46.65;101171.72;5321372;32;34397;-76
2022/11/14 14:20:27;;;;;;;;;;;;;;;16.26;47.08;101166.56;5339239;32;44603;-69
2022/11/14 14:23:38;;;;;;;;;;;;;;;16.18;47.30;101174.06;5331554;32;34191;-65
2022/11/14 14:26:43;;;;;;;;;;;;;;;16.08;47.32;101173.66;5340570;32;45500;-69
2022/11/14 14:29:45;;;;;;;;;;;;;;;15.80;48.28;101163.53;5351039;32;36067;-65
2022/11/14 14:33:06;;;;;;;;;;;;;;;15.82;48.20;101163.47;5342330;32;34302;-65
2022/11/14 14:36:35;;;;;;;;;;;;;;;16.00;47.49;101167.00;5332320;32;43711;-64
2022/11/14 14:39:37;;;;;;;;;;;;;;;15.56;48.70;101154.94;5350141;32;44703;-63
2022/11/14 14:42:39;;;;;;;;;;;;;;;15.70;48.29;101165.75;5346476;32;34781;-64
2022/11/14 14:45:45;;;;;;;;;;;;;;;15.68;48.11;101167.62;5345698;32;35608;-65
2022/11/14 14:48:47;;;;;;;;;;;;;;;15.52;48.83;101165.75;5340353;32;35500;-63
2022/11/14 14:51:49;;;;;;;;;;;;;;;15.47;48.96;101163.34;5344802;32;34293;-64
2022/11/14 14:55:01;;;;;;;;;;;;;;;15.04;50.42;101160.00;5354932;32;34368;-63
2022/11/14 14:58:32;;;;;;;;;;;;;;;15.40;50.37;101156.63;5331730;32;34308;-64
2022/11/14 15:01:37;;;;;;;;;;;;;;;15.13;51.68;101153.44;5339400;32;34134;-64
2022/11/14 15:04:39;;;;;;;;;;;;;;;15.17;52.50;101153.22;5351945;32;34367;-63
2022/11/14 15:07:40;;;;;;;;;;;;;;;15.06;53.49;101154.63;5331295;32;35616;-64
2022/11/14 15:10:42;;;;;;;;;;;;;;;14.74;54.60;101164.88;5342292;32;35741;-67
2022/11/14 15:13:44;;;;;;;;;;;;;;;14.62;55.29;101158.38;5342727;32;34314;-65
2022/11/14 15:16:49;;;;;;;;;;;;;;;14.67;55.27;101152.00;5352222;32;34274;-65
2022/11/14 15:19:53;;;;;;;;;;;;;;;14.69;55.20;101150.16;5334219;32;34407;-65
2022/11/14 15:23:02;;;;;;;;;;;;;;;14.25;56.61;101159.03;5326742;32;35306;-63
2022/11/14 15:26:15;;;;;;;;;;;;;;;14.52;55.57;101148.25;5356795;32;36113;-63
2022/11/14 15:29:20;;;;;;;;;;;;;;;14.21;56.53;101159.22;5326250;32;35092;-64
2022/11/14 15:32:23;;;;;;;;;;;;;;;14.20;56.62;101147.78;5356263;32;33867;-63
2022/11/14 15:35:25;;;;;;;;;;;;;;;13.90;57.68;101149.91;5346237;32;34359;-64
2022/11/14 15:38:27;;;;;;;;;;;;;;;13.93;57.72;101154.22;5353395;32;35593;-65
2022/11/14 15:41:44;;;;;;;;;;;;;;;13.95;57.60;101155.87;5338305;32;44574;-64
2022/11/14 15:44:47;;;;;;;;;;;;;;;13.76;58.02;101147.81;5341285;32;34265;-65
2022/11/14 15:47:57;;;;;;;;;;;;;;;13.75;58.01;101147.91;5334347;32;33282;-64
2022/11/14 15:50:59;;;;;;;;;;;;;;;13.71;58.24;101147.16;5344782;32;34524;-65
2022/11/14 15:54:01;;;;;;;;;;;;;;;13.59;58.55;101150.31;5351001;32;34292;-67
2022/11/14 15:57:13;;;;;;;;;;;;;;;13.63;58.51;101158.94;5348149;32;34120;-66
2022/11/14 16:00:16;;;;;;;;;;;;;;;13.43;59.42;101154.44;5342973;32;44401;-68
2022/11/14 16:03:18;;;;;;;;;;;;;;;13.72;58.27;101143.59;5340900;32;34673;-66
2022/11/14 16:06:20;;;;;;;;;;;;;;;13.51;58.92;101140.00;5334843;32;34001;-67
2022/11/14 16:09:22;;;;;;;;;;;;;;;13.78;58.14;101151.28;5338381;32;34332;-67
2022/11/14 16:12:24;;;;;;;;;;;;;;;13.45;58.97;101153.44;5340805;32;36165;-68